sensor_id;sensor_type;location;lat;lon;timestamp;P1;durP1;ratioP1;P2;durP2;ratioP2
55989;SDS011;41875;55.806;38.082;2023-02-28T00:04:11;15.73;;;4.93;;
55989;SDS011;41875;55.806;38.082;2023-02-28T00:06:40;14.35;;;5.50;;
55989;SDS011;41875;55.806;38.082;2023-02-28T00:09:10;13.80;;;4.65;;
55989;SDS011;41875;55.806;38.082;2023-02-28T00:11:38;14.27;;;5.13;;
55989;SDS011;41875;55.806;38.082;2023-02-28T00:14:07;17.13;;;5.45;;
55989;SDS011;41875;55.806;38.082;2023-02-28T00:16:35;14.57;;;5.03;;
55989;SDS011;41875;55.806;38.082;2023-02-28T00:19:04;12.95;;;5.40;;
55989;SDS011;41875;55.806;38.082;2023-02-28T00:21:32;18.02;;;6.07;;
55989;SDS011;41875;55.806;38.082;2023-02-28T00:24:02;13.63;;;5.53;;
55989;SDS011;41875;55.806;38.082;2023-02-28T00:26:32;17.33;;;5.78;;
55989;SDS011;41875;55.806;38.082;2023-02-28T00:29:01;15.57;;;5.45;;
55989;SDS011;41875;55.806;38.082;2023-02-28T00:31:29;16.10;;;5.80;;
55989;SDS011;41875;55.806;38.082;2023-02-28T00:33:58;14.55;;;5.90;;
55989;SDS011;41875;55.806;38.082;2023-02-28T00:36:26;15.40;;;5.38;;
55989;SDS011;41875;55.806;38.082;2023-02-28T00:38:55;13.93;;;5.03;;
55989;SDS011;41875;55.806;38.082;2023-02-28T00:41:27;14.98;;;5.43;;
55989;SDS011;41875;55.806;38.082;2023-02-28T00:43:57;16.27;;;6.18;;
55989;SDS011;41875;55.806;38.082;2023-02-28T00:46:26;15.18;;;5.70;;
55989;SDS011;41875;55.806;38.082;2023-02-28T00:48:57;16.38;;;5.43;;
55989;SDS011;41875;55.806;38.082;2023-02-28T00:51:25;15.23;;;5.72;;
55989;SDS011;41875;55.806;38.082;2023-02-28T00:53:56;13.65;;;5.60;;
55989;SDS011;41875;55.806;38.082;2023-02-28T00:56:25;15.18;;;5.72;;
55989;SDS011;41875;55.806;38.082;2023-02-28T01:01:23;15.55;;;5.63;;
55989;SDS011;41875;55.806;38.082;2023-02-28T01:03:52;17.92;;;5.88;;
55989;SDS011;41875;55.806;38.082;2023-02-28T01:06:21;13.85;;;5.55;;
55989;SDS011;41875;55.806;38.082;2023-02-28T01:08:50;15.13;;;5.80;;
55989;SDS011;41875;55.806;38.082;2023-02-28T01:11:18;14.63;;;5.28;;
55989;SDS011;41875;55.806;38.082;2023-02-28T01:13:47;14.98;;;5.03;;
55989;SDS011;41875;55.806;38.082;2023-02-28T01:16:16;14.75;;;5.75;;
55989;SDS011;41875;55.806;38.082;2023-02-28T01:18:46;16.38;;;5.07;;
55989;SDS011;41875;55.806;38.082;2023-02-28T01:21:17;13.10;;;4.97;;
55989;SDS011;41875;55.806;38.082;2023-02-28T01:23:47;15.32;;;5.22;;
55989;SDS011;41875;55.806;38.082;2023-02-28T01:26:17;11.75;;;5.28;;
55989;SDS011;41875;55.806;38.082;2023-02-28T01:28:48;13.95;;;4.82;;
55989;SDS011;41875;55.806;38.082;2023-02-28T01:31:18;14.82;;;5.68;;
55989;SDS011;41875;55.806;38.082;2023-02-28T01:33:49;13.48;;;5.20;;
55989;SDS011;41875;55.806;38.082;2023-02-28T01:36:19;13.95;;;4.80;;
55989;SDS011;41875;55.806;38.082;2023-02-28T01:38:49;11.23;;;4.90;;
55989;SDS011;41875;55.806;38.082;2023-02-28T01:41:20;12.82;;;5.35;;
55989;SDS011;41875;55.806;38.082;2023-02-28T01:43:57;13.60;;;4.80;;
55989;SDS011;41875;55.806;38.082;2023-02-28T01:46:30;11.57;;;5.03;;
55989;SDS011;41875;55.806;38.082;2023-02-28T01:49:02;13.75;;;4.82;;
55989;SDS011;41875;55.806;38.082;2023-02-28T01:51:35;11.55;;;4.45;;
55989;SDS011;41875;55.806;38.082;2023-02-28T01:54:14;13.25;;;5.20;;
55989;SDS011;41875;55.806;38.082;2023-02-28T01:56:47;12.48;;;4.43;;
55989;SDS011;41875;55.806;38.082;2023-02-28T01:59:20;14.05;;;5.25;;
55989;SDS011;41875;55.806;38.082;2023-02-28T02:01:52;11.20;;;3.58;;
55989;SDS011;41875;55.806;38.082;2023-02-28T02:04:24;10.23;;;4.05;;
55989;SDS011;41875;55.806;38.082;2023-02-28T02:06:59;10.90;;;4.47;;
55989;SDS011;41875;55.806;38.082;2023-02-28T02:09:27;10.20;;;4.40;;
55989;SDS011;41875;55.806;38.082;2023-02-28T02:11:56;10.90;;;4.95;;
55989;SDS011;41875;55.806;38.082;2023-02-28T02:14:31;16.55;;;4.88;;
55989;SDS011;41875;55.806;38.082;2023-02-28T02:17:15;11.88;;;5.03;;
55989;SDS011;41875;55.806;38.082;2023-02-28T02:20:10;13.52;;;4.93;;
55989;SDS011;41875;55.806;38.082;2023-02-28T02:23:07;13.15;;;5.05;;
55989;SDS011;41875;55.806;38.082;2023-02-28T02:26:04;13.93;;;5.55;;
55989;SDS011;41875;55.806;38.082;2023-02-28T02:28:53;14.27;;;4.88;;
55989;SDS011;41875;55.806;38.082;2023-02-28T02:31:33;10.63;;;4.70;;
55989;SDS011;41875;55.806;38.082;2023-02-28T02:34:41;16.95;;;4.68;;
55989;SDS011;41875;55.806;38.082;2023-02-28T02:37:21;15.20;;;6.00;;
55989;SDS011;41875;55.806;38.082;2023-02-28T02:40:00;15.00;;;5.60;;
55989;SDS011;41875;55.806;38.082;2023-02-28T02:42:38;12.00;;;4.87;;
55989;SDS011;41875;55.806;38.082;2023-02-28T02:45:11;15.90;;;5.57;;
55989;SDS011;41875;55.806;38.082;2023-02-28T02:47:44;9.75;;;4.22;;
55989;SDS011;41875;55.806;38.082;2023-02-28T02:50:17;12.38;;;4.45;;
55989;SDS011;41875;55.806;38.082;2023-02-28T02:52:51;14.77;;;5.32;;
55989;SDS011;41875;55.806;38.082;2023-02-28T02:55:23;12.32;;;5.18;;
55989;SDS011;41875;55.806;38.082;2023-02-28T02:57:53;15.20;;;5.07;;
55989;SDS011;41875;55.806;38.082;2023-02-28T03:00:27;17.67;;;6.53;;
55989;SDS011;41875;55.806;38.082;2023-02-28T03:02:59;14.73;;;5.53;;
55989;SDS011;41875;55.806;38.082;2023-02-28T03:05:32;11.88;;;5.38;;
55989;SDS011;41875;55.806;38.082;2023-02-28T03:13:10;12.13;;;4.43;;
55989;SDS011;41875;55.806;38.082;2023-02-28T03:15:48;13.82;;;5.20;;
55989;SDS011;41875;55.806;38.082;2023-02-28T03:18:36;15.23;;;5.82;;
55989;SDS011;41875;55.806;38.082;2023-02-28T03:21:14;15.73;;;6.82;;
55989;SDS011;41875;55.806;38.082;2023-02-28T03:23:56;14.55;;;5.45;;
55989;SDS011;41875;55.806;38.082;2023-02-28T03:26:31;11.40;;;5.47;;
55989;SDS011;41875;55.806;38.082;2023-02-28T03:29:06;14.60;;;6.53;;
55989;SDS011;41875;55.806;38.082;2023-02-28T03:31:44;12.25;;;5.07;;
55989;SDS011;41875;55.806;38.082;2023-02-28T03:34:19;14.57;;;5.90;;
55989;SDS011;41875;55.806;38.082;2023-02-28T03:36:56;16.63;;;6.38;;
55989;SDS011;41875;55.806;38.082;2023-02-28T03:39:28;16.90;;;5.90;;
55989;SDS011;41875;55.806;38.082;2023-02-28T03:42:05;14.90;;;5.40;;
55989;SDS011;41875;55.806;38.082;2023-02-28T03:44:38;12.48;;;5.10;;
55989;SDS011;41875;55.806;38.082;2023-02-28T03:47:10;14.65;;;6.13;;
55989;SDS011;41875;55.806;38.082;2023-02-28T03:49:42;11.75;;;5.10;;
55989;SDS011;41875;55.806;38.082;2023-02-28T03:52:17;14.48;;;6.18;;
55989;SDS011;41875;55.806;38.082;2023-02-28T03:54:50;11.98;;;4.50;;
55989;SDS011;41875;55.806;38.082;2023-02-28T03:58:11;15.60;;;6.13;;
55989;SDS011;41875;55.806;38.082;2023-02-28T04:00:35;14.35;;;4.70;;
55989;SDS011;41875;55.806;38.082;2023-02-28T04:03:08;13.23;;;4.53;;
55989;SDS011;41875;55.806;38.082;2023-02-28T04:05:44;18.45;;;7.35;;
55989;SDS011;41875;55.806;38.082;2023-02-28T04:08:19;15.00;;;5.45;;
55989;SDS011;41875;55.806;38.082;2023-02-28T04:10:49;13.15;;;5.30;;
55989;SDS011;41875;55.806;38.082;2023-02-28T04:13:22;16.13;;;5.35;;
55989;SDS011;41875;55.806;38.082;2023-02-28T04:15:50;13.02;;;5.85;;
55989;SDS011;41875;55.806;38.082;2023-02-28T04:18:19;13.10;;;4.70;;
55989;SDS011;41875;55.806;38.082;2023-02-28T04:20:47;13.52;;;4.57;;
55989;SDS011;41875;55.806;38.082;2023-02-28T04:23:15;13.80;;;4.88;;
55989;SDS011;41875;55.806;38.082;2023-02-28T04:25:45;14.80;;;5.13;;
55989;SDS011;41875;55.806;38.082;2023-02-28T04:28:14;14.77;;;5.03;;
55989;SDS011;41875;55.806;38.082;2023-02-28T04:30:42;10.50;;;3.80;;
55989;SDS011;41875;55.806;38.082;2023-02-28T04:33:11;13.57;;;5.13;;
55989;SDS011;41875;55.806;38.082;2023-02-28T04:35:39;11.40;;;4.85;;
55989;SDS011;41875;55.806;38.082;2023-02-28T04:38:08;12.18;;;4.88;;
55989;SDS011;41875;55.806;38.082;2023-02-28T04:40:36;10.10;;;4.43;;
55989;SDS011;41875;55.806;38.082;2023-02-28T04:43:06;13.38;;;4.97;;
55989;SDS011;41875;55.806;38.082;2023-02-28T04:45:34;13.98;;;4.72;;
55989;SDS011;41875;55.806;38.082;2023-02-28T04:48:03;10.82;;;4.18;;
55989;SDS011;41875;55.806;38.082;2023-02-28T04:50:32;12.27;;;4.95;;
55989;SDS011;41875;55.806;38.082;2023-02-28T04:53:00;10.20;;;4.45;;
55989;SDS011;41875;55.806;38.082;2023-02-28T05:02:54;9.00;;;3.42;;
55989;SDS011;41875;55.806;38.082;2023-02-28T05:07:51;8.90;;;3.35;;
55989;SDS011;41875;55.806;38.082;2023-02-28T05:10:20;9.50;;;3.28;;
55989;SDS011;41875;55.806;38.082;2023-02-28T05:12:48;12.15;;;4.40;;
55989;SDS011;41875;55.806;38.082;2023-02-28T05:20:14;8.23;;;3.55;;
55989;SDS011;41875;55.806;38.082;2023-02-28T05:22:43;9.20;;;3.50;;
55989;SDS011;41875;55.806;38.082;2023-02-28T05:25:13;5.50;;;2.53;;
55989;SDS011;41875;55.806;38.082;2023-02-28T05:27:45;7.60;;;3.03;;
55989;SDS011;41875;55.806;38.082;2023-02-28T05:32:42;9.63;;;3.22;;
55989;SDS011;41875;55.806;38.082;2023-02-28T05:35:12;8.45;;;3.60;;
55989;SDS011;41875;55.806;38.082;2023-02-28T05:37:40;8.30;;;3.17;;
55989;SDS011;41875;55.806;38.082;2023-02-28T05:42:38;8.43;;;3.13;;
55989;SDS011;41875;55.806;38.082;2023-02-28T05:47:35;8.55;;;3.65;;
55989;SDS011;41875;55.806;38.082;2023-02-28T05:50:04;6.55;;;2.90;;
55989;SDS011;41875;55.806;38.082;2023-02-28T05:52:35;7.00;;;2.95;;
55989;SDS011;41875;55.806;38.082;2023-02-28T05:55:04;9.75;;;3.20;;
55989;SDS011;41875;55.806;38.082;2023-02-28T05:57:33;8.75;;;3.13;;
55989;SDS011;41875;55.806;38.082;2023-02-28T06:02:38;8.15;;;2.92;;
55989;SDS011;41875;55.806;38.082;2023-02-28T06:05:09;7.95;;;3.05;;
55989;SDS011;41875;55.806;38.082;2023-02-28T06:07:43;10.20;;;3.63;;
55989;SDS011;41875;55.806;38.082;2023-02-28T06:10:12;8.98;;;3.00;;
55989;SDS011;41875;55.806;38.082;2023-02-28T06:12:41;8.55;;;3.30;;
55989;SDS011;41875;55.806;38.082;2023-02-28T06:15:11;9.10;;;3.35;;
55989;SDS011;41875;55.806;38.082;2023-02-28T06:17:41;7.65;;;3.13;;
55989;SDS011;41875;55.806;38.082;2023-02-28T06:20:10;5.20;;;1.90;;
55989;SDS011;41875;55.806;38.082;2023-02-28T06:22:40;10.00;;;3.88;;
55989;SDS011;41875;55.806;38.082;2023-02-28T06:25:10;6.30;;;2.42;;
55989;SDS011;41875;55.806;38.082;2023-02-28T06:27:39;8.02;;;2.53;;
55989;SDS011;41875;55.806;38.082;2023-02-28T06:30:08;9.75;;;3.95;;
55989;SDS011;41875;55.806;38.082;2023-02-28T06:32:37;9.60;;;3.13;;
55989;SDS011;41875;55.806;38.082;2023-02-28T06:35:06;8.15;;;3.20;;
55989;SDS011;41875;55.806;38.082;2023-02-28T06:37:35;7.70;;;3.10;;
55989;SDS011;41875;55.806;38.082;2023-02-28T06:40:08;8.63;;;3.13;;
55989;SDS011;41875;55.806;38.082;2023-02-28T06:42:39;10.05;;;3.20;;
55989;SDS011;41875;55.806;38.082;2023-02-28T06:45:08;6.88;;;3.10;;
55989;SDS011;41875;55.806;38.082;2023-02-28T06:47:37;7.80;;;3.03;;
55989;SDS011;41875;55.806;38.082;2023-02-28T06:50:07;7.82;;;2.88;;
55989;SDS011;41875;55.806;38.082;2023-02-28T06:52:37;7.72;;;3.38;;
55989;SDS011;41875;55.806;38.082;2023-02-28T06:55:06;7.55;;;2.53;;
55989;SDS011;41875;55.806;38.082;2023-02-28T06:57:36;6.57;;;2.75;;
55989;SDS011;41875;55.806;38.082;2023-02-28T07:02:36;7.28;;;2.78;;
55989;SDS011;41875;55.806;38.082;2023-02-28T07:05:05;8.38;;;2.80;;
55989;SDS011;41875;55.806;38.082;2023-02-28T07:07:34;6.55;;;2.45;;
55989;SDS011;41875;55.806;38.082;2023-02-28T07:10:05;6.45;;;2.78;;
55989;SDS011;41875;55.806;38.082;2023-02-28T07:12:34;6.43;;;2.92;;
55989;SDS011;41875;55.806;38.082;2023-02-28T07:15:06;7.07;;;3.00;;
55989;SDS011;41875;55.806;38.082;2023-02-28T07:17:36;5.75;;;2.67;;
55989;SDS011;41875;55.806;38.082;2023-02-28T07:22:33;4.97;;;2.05;;
55989;SDS011;41875;55.806;38.082;2023-02-28T07:27:30;6.10;;;2.80;;
55989;SDS011;41875;55.806;38.082;2023-02-28T07:29:58;7.20;;;2.83;;
55989;SDS011;41875;55.806;38.082;2023-02-28T07:32:30;7.20;;;2.80;;
55989;SDS011;41875;55.806;38.082;2023-02-28T07:34:59;7.55;;;3.15;;
55989;SDS011;41875;55.806;38.082;2023-02-28T07:37:28;6.68;;;2.58;;
55989;SDS011;41875;55.806;38.082;2023-02-28T07:39:58;9.25;;;3.58;;
55989;SDS011;41875;55.806;38.082;2023-02-28T07:42:29;7.35;;;2.92;;
55989;SDS011;41875;55.806;38.082;2023-02-28T07:44:57;6.68;;;2.97;;
55989;SDS011;41875;55.806;38.082;2023-02-28T07:47:26;8.10;;;3.20;;
55989;SDS011;41875;55.806;38.082;2023-02-28T07:52:24;7.18;;;2.97;;
55989;SDS011;41875;55.806;38.082;2023-02-28T07:57:21;8.23;;;2.90;;
55989;SDS011;41875;55.806;38.082;2023-02-28T07:59:51;8.18;;;3.05;;
55989;SDS011;41875;55.806;38.082;2023-02-28T08:02:19;7.53;;;2.85;;
55989;SDS011;41875;55.806;38.082;2023-02-28T08:09:46;5.88;;;2.85;;
55989;SDS011;41875;55.806;38.082;2023-02-28T08:12:15;8.77;;;3.67;;
55989;SDS011;41875;55.806;38.082;2023-02-28T08:14:43;7.20;;;2.72;;
55989;SDS011;41875;55.806;38.082;2023-02-28T08:17:12;6.97;;;2.85;;
55989;SDS011;41875;55.806;38.082;2023-02-28T08:19:40;8.30;;;3.22;;
55989;SDS011;41875;55.806;38.082;2023-02-28T08:22:09;9.13;;;2.75;;
55989;SDS011;41875;55.806;38.082;2023-02-28T08:24:39;7.00;;;2.83;;
55989;SDS011;41875;55.806;38.082;2023-02-28T08:27:09;6.53;;;2.63;;
55989;SDS011;41875;55.806;38.082;2023-02-28T08:32:06;7.03;;;2.53;;
55989;SDS011;41875;55.806;38.082;2023-02-28T08:34:54;6.35;;;2.58;;
55989;SDS011;41875;55.806;38.082;2023-02-28T08:37:22;12.02;;;3.22;;
55989;SDS011;41875;55.806;38.082;2023-02-28T08:39:52;9.45;;;3.38;;
55989;SDS011;41875;55.806;38.082;2023-02-28T08:42:22;6.32;;;2.67;;
55989;SDS011;41875;55.806;38.082;2023-02-28T08:44:51;8.05;;;3.00;;
55989;SDS011;41875;55.806;38.082;2023-02-28T08:49:48;8.68;;;3.28;;
55989;SDS011;41875;55.806;38.082;2023-02-28T08:54:45;9.60;;;3.28;;
55989;SDS011;41875;55.806;38.082;2023-02-28T08:57:16;8.20;;;3.95;;
55989;SDS011;41875;55.806;38.082;2023-02-28T08:59:45;6.63;;;3.13;;
55989;SDS011;41875;55.806;38.082;2023-02-28T09:02:14;6.88;;;2.58;;
55989;SDS011;41875;55.806;38.082;2023-02-28T09:04:43;6.60;;;2.67;;
55989;SDS011;41875;55.806;38.082;2023-02-28T09:07:12;8.02;;;3.25;;
55989;SDS011;41875;55.806;38.082;2023-02-28T09:09:41;8.75;;;3.50;;
55989;SDS011;41875;55.806;38.082;2023-02-28T09:12:22;10.38;;;3.25;;
55989;SDS011;41875;55.806;38.082;2023-02-28T09:14:52;7.28;;;3.10;;
55989;SDS011;41875;55.806;38.082;2023-02-28T09:17:21;12.23;;;3.03;;
55989;SDS011;41875;55.806;38.082;2023-02-28T09:19:56;9.88;;;3.20;;
55989;SDS011;41875;55.806;38.082;2023-02-28T09:22:25;8.65;;;3.30;;
55989;SDS011;41875;55.806;38.082;2023-02-28T09:24:54;7.97;;;3.22;;
55989;SDS011;41875;55.806;38.082;2023-02-28T09:27:24;6.45;;;2.40;;
55989;SDS011;41875;55.806;38.082;2023-02-28T09:29:55;9.85;;;3.20;;
55989;SDS011;41875;55.806;38.082;2023-02-28T09:32:24;8.93;;;3.60;;
55989;SDS011;41875;55.806;38.082;2023-02-28T09:34:53;9.52;;;3.60;;
55989;SDS011;41875;55.806;38.082;2023-02-28T09:37:22;6.55;;;2.67;;
55989;SDS011;41875;55.806;38.082;2023-02-28T09:39:51;8.30;;;3.80;;
55989;SDS011;41875;55.806;38.082;2023-02-28T09:42:21;7.63;;;3.05;;
55989;SDS011;41875;55.806;38.082;2023-02-28T09:44:53;6.80;;;2.97;;
55989;SDS011;41875;55.806;38.082;2023-02-28T09:47:25;11.75;;;4.00;;
55989;SDS011;41875;55.806;38.082;2023-02-28T09:50:03;8.10;;;3.67;;
55989;SDS011;41875;55.806;38.082;2023-02-28T09:52:48;9.00;;;3.05;;
55989;SDS011;41875;55.806;38.082;2023-02-28T09:55:19;6.70;;;2.83;;
55989;SDS011;41875;55.806;38.082;2023-02-28T09:57:54;7.53;;;3.30;;
55989;SDS011;41875;55.806;38.082;2023-02-28T10:00:30;8.68;;;3.63;;
55989;SDS011;41875;55.806;38.082;2023-02-28T10:03:04;9.63;;;3.03;;
55989;SDS011;41875;55.806;38.082;2023-02-28T10:05:50;8.95;;;2.83;;
55989;SDS011;41875;55.806;38.082;2023-02-28T10:08:22;9.52;;;3.38;;
55989;SDS011;41875;55.806;38.082;2023-02-28T10:10:55;6.03;;;2.50;;
55989;SDS011;41875;55.806;38.082;2023-02-28T10:13:27;8.50;;;3.05;;
55989;SDS011;41875;55.806;38.082;2023-02-28T10:16:05;8.18;;;3.00;;
55989;SDS011;41875;55.806;38.082;2023-02-28T10:18:40;6.68;;;2.60;;
55989;SDS011;41875;55.806;38.082;2023-02-28T10:21:16;7.70;;;3.10;;
55989;SDS011;41875;55.806;38.082;2023-02-28T10:23:49;12.63;;;3.03;;
55989;SDS011;41875;55.806;38.082;2023-02-28T10:26:25;7.60;;;3.03;;
55989;SDS011;41875;55.806;38.082;2023-02-28T10:28:57;9.10;;;3.30;;
55989;SDS011;41875;55.806;38.082;2023-02-28T10:31:28;7.38;;;2.72;;
55989;SDS011;41875;55.806;38.082;2023-02-28T10:33:58;9.93;;;3.00;;
55989;SDS011;41875;55.806;38.082;2023-02-28T10:36:27;6.22;;;2.75;;
55989;SDS011;41875;55.806;38.082;2023-02-28T10:38:57;8.27;;;2.92;;
55989;SDS011;41875;55.806;38.082;2023-02-28T10:41:28;7.28;;;3.03;;
55989;SDS011;41875;55.806;38.082;2023-02-28T10:44:12;7.07;;;2.85;;
55989;SDS011;41875;55.806;38.082;2023-02-28T10:46:44;7.97;;;2.85;;
55989;SDS011;41875;55.806;38.082;2023-02-28T10:49:19;10.93;;;3.40;;
55989;SDS011;41875;55.806;38.082;2023-02-28T10:51:52;6.57;;;2.40;;
55989;SDS011;41875;55.806;38.082;2023-02-28T10:54:24;9.38;;;2.67;;
55989;SDS011;41875;55.806;38.082;2023-02-28T10:57:07;9.48;;;3.60;;
55989;SDS011;41875;55.806;38.082;2023-02-28T10:59:43;7.43;;;3.85;;
55989;SDS011;41875;55.806;38.082;2023-02-28T11:02:33;5.93;;;2.65;;
55989;SDS011;41875;55.806;38.082;2023-02-28T11:07:56;8.00;;;2.60;;
55989;SDS011;41875;55.806;38.082;2023-02-28T11:10:30;7.75;;;3.55;;
55989;SDS011;41875;55.806;38.082;2023-02-28T11:13:01;10.13;;;3.58;;
55989;SDS011;41875;55.806;38.082;2023-02-28T11:15:31;10.45;;;3.30;;
55989;SDS011;41875;55.806;38.082;2023-02-28T11:18:06;9.43;;;3.70;;
55989;SDS011;41875;55.806;38.082;2023-02-28T11:20:50;9.15;;;3.20;;
55989;SDS011;41875;55.806;38.082;2023-02-28T11:23:21;7.80;;;3.30;;
55989;SDS011;41875;55.806;38.082;2023-02-28T11:25:55;8.05;;;3.60;;
55989;SDS011;41875;55.806;38.082;2023-02-28T11:28:28;9.13;;;3.33;;
55989;SDS011;41875;55.806;38.082;2023-02-28T11:31:00;7.95;;;3.33;;
55989;SDS011;41875;55.806;38.082;2023-02-28T11:33:37;10.52;;;4.25;;
55989;SDS011;41875;55.806;38.082;2023-02-28T11:36:10;8.23;;;3.80;;
55989;SDS011;41875;55.806;38.082;2023-02-28T11:38:40;8.90;;;4.15;;
55989;SDS011;41875;55.806;38.082;2023-02-28T11:41:16;10.80;;;4.38;;
55989;SDS011;41875;55.806;38.082;2023-02-28T11:43:57;7.65;;;3.03;;
55989;SDS011;41875;55.806;38.082;2023-02-28T11:46:37;10.25;;;3.42;;
55989;SDS011;41875;55.806;38.082;2023-02-28T11:49:18;10.43;;;3.70;;
55989;SDS011;41875;55.806;38.082;2023-02-28T11:51:56;10.60;;;3.38;;
55989;SDS011;41875;55.806;38.082;2023-02-28T11:54:33;11.85;;;4.28;;
55989;SDS011;41875;55.806;38.082;2023-02-28T11:57:21;8.68;;;3.40;;
55989;SDS011;41875;55.806;38.082;2023-02-28T12:00:08;10.32;;;3.70;;
55989;SDS011;41875;55.806;38.082;2023-02-28T12:03:31;8.30;;;4.18;;
55989;SDS011;41875;55.806;38.082;2023-02-28T12:06:09;10.20;;;3.95;;
55989;SDS011;41875;55.806;38.082;2023-02-28T12:08:47;8.88;;;4.45;;
55989;SDS011;41875;55.806;38.082;2023-02-28T12:11:26;8.25;;;3.60;;
55989;SDS011;41875;55.806;38.082;2023-02-28T12:14:07;8.15;;;3.78;;
55989;SDS011;41875;55.806;38.082;2023-02-28T12:17:02;8.30;;;3.22;;
55989;SDS011;41875;55.806;38.082;2023-02-28T12:19:43;8.70;;;3.40;;
55989;SDS011;41875;55.806;38.082;2023-02-28T12:22:25;8.13;;;3.35;;
55989;SDS011;41875;55.806;38.082;2023-02-28T12:25:20;8.10;;;3.13;;
55989;SDS011;41875;55.806;38.082;2023-02-28T12:28:08;10.48;;;3.80;;
55989;SDS011;41875;55.806;38.082;2023-02-28T12:30:39;10.10;;;3.47;;
55989;SDS011;41875;55.806;38.082;2023-02-28T12:33:15;8.35;;;3.35;;
55989;SDS011;41875;55.806;38.082;2023-02-28T12:35:49;8.90;;;3.25;;
55989;SDS011;41875;55.806;38.082;2023-02-28T12:38:25;9.13;;;3.63;;
55989;SDS011;41875;55.806;38.082;2023-02-28T12:40:57;9.70;;;3.67;;
55989;SDS011;41875;55.806;38.082;2023-02-28T12:43:31;7.40;;;3.35;;
55989;SDS011;41875;55.806;38.082;2023-02-28T12:46:07;8.82;;;2.97;;
55989;SDS011;41875;55.806;38.082;2023-02-28T12:48:42;6.57;;;3.03;;
55989;SDS011;41875;55.806;38.082;2023-02-28T12:51:15;8.68;;;3.42;;
55989;SDS011;41875;55.806;38.082;2023-02-28T12:53:59;7.45;;;3.13;;
55989;SDS011;41875;55.806;38.082;2023-02-28T12:56:38;7.07;;;3.00;;
55989;SDS011;41875;55.806;38.082;2023-02-28T12:59:14;6.68;;;3.13;;
55989;SDS011;41875;55.806;38.082;2023-02-28T13:02:02;7.07;;;2.72;;
55989;SDS011;41875;55.806;38.082;2023-02-28T13:08:01;6.55;;;2.58;;
55989;SDS011;41875;55.806;38.082;2023-02-28T13:10:42;8.73;;;4.05;;
55989;SDS011;41875;55.806;38.082;2023-02-28T13:13:16;8.48;;;3.53;;
55989;SDS011;41875;55.806;38.082;2023-02-28T13:15:56;7.88;;;3.20;;
55989;SDS011;41875;55.806;38.082;2023-02-28T13:18:29;9.10;;;3.25;;
55989;SDS011;41875;55.806;38.082;2023-02-28T13:20:59;6.68;;;2.70;;
55989;SDS011;41875;55.806;38.082;2023-02-28T13:23:39;7.88;;;3.42;;
55989;SDS011;41875;55.806;38.082;2023-02-28T13:29:37;9.20;;;3.15;;
55989;SDS011;41875;55.806;38.082;2023-02-28T13:35:14;8.18;;;3.30;;
55989;SDS011;41875;55.806;38.082;2023-02-28T13:38:21;6.93;;;3.10;;
55989;SDS011;41875;55.806;38.082;2023-02-28T13:40:52;8.05;;;2.88;;
55989;SDS011;41875;55.806;38.082;2023-02-28T13:43:20;8.18;;;3.53;;
55989;SDS011;41875;55.806;38.082;2023-02-28T13:46:30;6.60;;;3.10;;
55989;SDS011;41875;55.806;38.082;2023-02-28T13:51:46;8.35;;;3.75;;
55989;SDS011;41875;55.806;38.082;2023-02-28T13:54:19;6.82;;;3.35;;
55989;SDS011;41875;55.806;38.082;2023-02-28T13:57:03;8.68;;;2.90;;
55989;SDS011;41875;55.806;38.082;2023-02-28T13:59:47;8.60;;;3.47;;
55989;SDS011;41875;55.806;38.082;2023-02-28T14:02:31;8.73;;;3.60;;
55989;SDS011;41875;55.806;38.082;2023-02-28T14:05:12;6.22;;;2.85;;
55989;SDS011;41875;55.806;38.082;2023-02-28T14:07:45;8.73;;;3.83;;
55989;SDS011;41875;55.806;38.082;2023-02-28T14:10:21;9.13;;;3.90;;
55989;SDS011;41875;55.806;38.082;2023-02-28T14:13:03;10.63;;;4.28;;
55989;SDS011;41875;55.806;38.082;2023-02-28T14:15:41;9.20;;;3.35;;
55989;SDS011;41875;55.806;38.082;2023-02-28T14:21:10;8.18;;;3.80;;
55989;SDS011;41875;55.806;38.082;2023-02-28T14:27:03;6.18;;;2.72;;
55989;SDS011;41875;55.806;38.082;2023-02-28T14:29:56;10.65;;;3.50;;
55989;SDS011;41875;55.806;38.082;2023-02-28T14:32:37;7.47;;;3.83;;
55989;SDS011;41875;55.806;38.082;2023-02-28T14:35:19;9.43;;;4.35;;
55989;SDS011;41875;55.806;38.082;2023-02-28T14:37:55;7.60;;;3.08;;
55989;SDS011;41875;55.806;38.082;2023-02-28T14:40:26;10.15;;;4.18;;
55989;SDS011;41875;55.806;38.082;2023-02-28T14:42:58;11.13;;;3.78;;
55989;SDS011;41875;55.806;38.082;2023-02-28T14:45:29;8.38;;;3.80;;
55989;SDS011;41875;55.806;38.082;2023-02-28T14:47:59;9.75;;;4.15;;
55989;SDS011;41875;55.806;38.082;2023-02-28T14:50:32;7.57;;;3.70;;
55989;SDS011;41875;55.806;38.082;2023-02-28T14:53:03;7.95;;;3.90;;
55989;SDS011;41875;55.806;38.082;2023-02-28T14:55:44;9.05;;;3.40;;
55989;SDS011;41875;55.806;38.082;2023-02-28T14:58:19;8.65;;;3.53;;
55989;SDS011;41875;55.806;38.082;2023-02-28T15:00:51;8.90;;;4.10;;
55989;SDS011;41875;55.806;38.082;2023-02-28T15:03:22;8.52;;;3.60;;
55989;SDS011;41875;55.806;38.082;2023-02-28T15:05:54;10.52;;;4.30;;
55989;SDS011;41875;55.806;38.082;2023-02-28T15:08:24;8.40;;;3.85;;
55989;SDS011;41875;55.806;38.082;2023-02-28T15:10:56;10.43;;;3.17;;
55989;SDS011;41875;55.806;38.082;2023-02-28T15:13:30;8.80;;;4.03;;
55989;SDS011;41875;55.806;38.082;2023-02-28T15:16:05;8.60;;;3.97;;
55989;SDS011;41875;55.806;38.082;2023-02-28T15:18:41;9.18;;;3.92;;
55989;SDS011;41875;55.806;38.082;2023-02-28T15:21:16;6.85;;;3.60;;
55989;SDS011;41875;55.806;38.082;2023-02-28T15:23:46;9.15;;;3.80;;
55989;SDS011;41875;55.806;38.082;2023-02-28T15:26:19;9.20;;;3.53;;
55989;SDS011;41875;55.806;38.082;2023-02-28T15:28:52;10.23;;;3.67;;
55989;SDS011;41875;55.806;38.082;2023-02-28T15:31:26;7.07;;;3.45;;
55989;SDS011;41875;55.806;38.082;2023-02-28T15:34:14;10.90;;;4.10;;
55989;SDS011;41875;55.806;38.082;2023-02-28T15:36:51;13.45;;;3.60;;
55989;SDS011;41875;55.806;38.082;2023-02-28T15:39:20;8.95;;;3.38;;
55989;SDS011;41875;55.806;38.082;2023-02-28T15:41:51;7.53;;;3.35;;
55989;SDS011;41875;55.806;38.082;2023-02-28T15:44:24;6.28;;;3.22;;
55989;SDS011;41875;55.806;38.082;2023-02-28T15:47:00;7.95;;;3.40;;
55989;SDS011;41875;55.806;38.082;2023-02-28T15:49:35;5.45;;;2.75;;
55989;SDS011;41875;55.806;38.082;2023-02-28T15:52:15;8.30;;;3.75;;
55989;SDS011;41875;55.806;38.082;2023-02-28T15:54:46;7.85;;;3.88;;
55989;SDS011;41875;55.806;38.082;2023-02-28T15:57:17;9.15;;;3.95;;
55989;SDS011;41875;55.806;38.082;2023-02-28T15:59:49;8.85;;;3.88;;
55989;SDS011;41875;55.806;38.082;2023-02-28T16:02:22;7.43;;;2.67;;
55989;SDS011;41875;55.806;38.082;2023-02-28T16:05:12;5.90;;;3.17;;
55989;SDS011;41875;55.806;38.082;2023-02-28T16:07:49;5.50;;;2.33;;
55989;SDS011;41875;55.806;38.082;2023-02-28T16:10:18;7.65;;;3.22;;
55989;SDS011;41875;55.806;38.082;2023-02-28T16:15:18;8.00;;;3.00;;
55989;SDS011;41875;55.806;38.082;2023-02-28T16:17:49;6.50;;;3.13;;
55989;SDS011;41875;55.806;38.082;2023-02-28T16:20:19;6.97;;;3.58;;
55989;SDS011;41875;55.806;38.082;2023-02-28T16:22:50;7.75;;;3.80;;
55989;SDS011;41875;55.806;38.082;2023-02-28T16:25:20;8.07;;;3.42;;
55989;SDS011;41875;55.806;38.082;2023-02-28T16:27:51;9.05;;;3.50;;
55989;SDS011;41875;55.806;38.082;2023-02-28T16:30:23;7.57;;;3.50;;